createdAt,value
2022-10-22T00:01:56.877Z,77.00
2022-10-22T00:04:26.987Z,77.34
2022-10-22T00:06:57.065Z,78.05
2022-10-22T00:09:26.729Z,76.37
2022-10-22T00:11:56.966Z,75.17
2022-10-22T00:14:27.047Z,74.03
2022-10-22T00:16:57.474Z,73.27
2022-10-22T00:19:28.971Z,72.55
2022-10-22T00:21:58.678Z,72.41
2022-10-22T00:24:27.340Z,73.17
2022-10-22T00:26:56.638Z,73.25
2022-10-22T00:29:25.842Z,74.63
2022-10-22T00:34:25.084Z,72.35
2022-10-22T00:36:54.048Z,71.53
2022-10-22T00:39:24.566Z,70.70
2022-10-22T00:41:54.492Z,70.45
2022-10-22T00:44:43.982Z,69.89
2022-10-22T00:47:13.794Z,69.59
2022-10-22T00:49:43.914Z,68.86
2022-10-22T00:52:14.992Z,68.50
2022-10-22T00:54:45.752Z,68.50
2022-10-22T00:57:16.673Z,68.03
2022-10-22T00:59:46.936Z,67.61
2022-10-22T01:02:17.165Z,67.16
2022-10-22T01:04:46.968Z,66.95
2022-10-22T01:07:21.089Z,66.10
2022-10-22T01:10:03.794Z,66.18
2022-10-22T01:12:33.116Z,66.14
2022-10-22T01:15:12.323Z,68.24
2022-10-22T01:18:01.091Z,68.74
2022-10-22T01:20:49.069Z,66.45
2022-10-22T01:23:23.955Z,65.61
2022-10-22T01:26:05.688Z,65.18
2022-10-22T01:28:47.948Z,65.57
2022-10-22T01:31:19.362Z,68.06
2022-10-22T01:33:50.311Z,68.14
2022-10-22T01:39:07.390Z,65.87
2022-10-22T01:41:39.219Z,64.88
2022-10-22T01:44:23.416Z,65.48
2022-10-22T01:46:56.239Z,64.45
2022-10-22T01:49:30.894Z,64.73
2022-10-22T01:52:03.172Z,64.92
2022-10-22T01:54:35.086Z,65.26
2022-10-22T01:57:13.383Z,66.92
2022-10-22T01:59:59.308Z,67.60
2022-10-22T02:02:42.927Z,66.58
2022-10-22T02:05:20.888Z,69.34
2022-10-22T02:07:57.782Z,71.06
2022-10-22T02:10:28.910Z,68.47
2022-10-22T02:12:59.723Z,70.34
2022-10-22T02:15:30.420Z,71.03
2022-10-22T02:18:01.909Z,71.17
2022-10-22T02:20:33.609Z,70.33
2022-10-22T02:23:02.652Z,70.55
2022-10-22T02:25:33.281Z,69.41
2022-10-22T02:28:04.208Z,70.04
2022-10-22T02:30:34.464Z,69.74
2022-10-22T02:33:10.169Z,67.50
2022-10-22T02:35:41.736Z,66.34
2022-10-22T02:38:12.689Z,65.58
2022-10-22T02:40:42.865Z,64.87
2022-10-22T02:43:13.762Z,64.51
2022-10-22T02:45:43.675Z,64.23
2022-10-22T02:48:12.669Z,64.22
2022-10-22T02:50:42.122Z,63.55
2022-10-22T02:53:10.612Z,63.54
2022-10-22T02:55:40.481Z,63.11
2022-10-22T02:58:10.658Z,63.00
2022-10-22T03:00:40.567Z,63.65
2022-10-22T03:03:10.366Z,63.15
2022-10-22T03:05:40.154Z,63.85
2022-10-22T03:08:10.656Z,64.31
2022-10-22T03:10:40.244Z,63.93
2022-10-22T03:13:10.224Z,65.32
2022-10-22T03:15:39.624Z,65.25
2022-10-22T03:18:09.715Z,64.32
2022-10-22T03:20:39.938Z,63.33
2022-10-22T03:23:10.007Z,63.18
2022-10-22T03:25:41.227Z,63.31
2022-10-22T03:28:11.451Z,63.82
2022-10-22T03:30:41.519Z,66.47
2022-10-22T03:33:11.198Z,67.18
2022-10-22T03:35:44.399Z,70.17
2022-10-22T03:38:14.197Z,66.57
2022-10-22T03:40:45.202Z,63.45
2022-10-22T03:43:13.910Z,63.09
2022-10-22T03:45:42.597Z,66.63
2022-10-22T03:48:11.433Z,70.04
2022-10-22T03:50:40.905Z,72.47
2022-10-22T03:53:11.118Z,74.00
2022-10-22T03:55:41.789Z,73.00
2022-10-22T03:58:11.369Z,70.56
2022-10-22T04:00:40.445Z,69.27
2022-10-22T04:03:09.090Z,68.87
2022-10-22T04:05:37.642Z,69.27
2022-10-22T04:08:07.020Z,69.80
2022-10-22T04:10:36.127Z,71.02
2022-10-22T04:13:05.679Z,71.15
2022-10-22T04:15:34.399Z,72.49
2022-10-22T04:18:03.092Z,69.19
2022-10-22T04:20:32.317Z,67.36
2022-10-22T04:23:01.604Z,67.25
2022-10-22T04:25:30.165Z,67.21
2022-10-22T04:27:59.081Z,68.10
2022-10-22T04:30:29.497Z,70.73
2022-10-22T04:32:58.025Z,70.49
2022-10-22T04:35:26.792Z,75.15
2022-10-22T04:37:56.459Z,75.85
2022-10-22T04:40:24.865Z,76.41
2022-10-22T04:42:53.626Z,75.76
2022-10-22T04:45:22.055Z,74.64
2022-10-22T04:47:51.107Z,73.60
2022-10-22T04:50:19.795Z,72.60
2022-10-22T04:52:48.522Z,72.51
2022-10-22T04:55:17.120Z,71.91
2022-10-22T04:57:46.021Z,70.13
2022-10-22T05:00:16.768Z,69.84
2022-10-22T05:02:49.106Z,69.73
2022-10-22T05:05:17.528Z,69.32
2022-10-22T05:07:46.316Z,69.80
2022-10-22T05:10:15.107Z,69.50
2022-10-22T05:12:43.685Z,69.13
2022-10-22T05:15:12.123Z,68.89
2022-10-22T05:17:41.041Z,69.39
2022-10-22T05:20:09.947Z,69.41
2022-10-22T05:22:38.223Z,70.31
2022-10-22T05:25:07.012Z,71.61
2022-10-22T05:27:35.595Z,69.58
2022-10-22T05:30:04.075Z,68.48
2022-10-22T05:32:32.419Z,68.78
2022-10-22T05:35:00.729Z,69.62
2022-10-22T05:37:28.955Z,71.38
2022-10-22T05:40:06.775Z,72.09
2022-10-22T05:42:45.944Z,71.84
2022-10-22T05:45:14.649Z,70.85
2022-10-22T05:47:43.089Z,72.20
2022-10-22T05:50:11.395Z,72.06
2022-10-22T05:52:40.043Z,71.72
2022-10-22T05:55:08.953Z,71.54
2022-10-22T05:57:37.227Z,71.32
2022-10-22T06:00:05.959Z,70.88
2022-10-22T06:02:34.255Z,70.93
2022-10-22T06:05:02.568Z,69.29
2022-10-22T06:07:31.150Z,68.31
2022-10-22T06:09:59.836Z,68.88
2022-10-22T06:12:28.222Z,70.41
2022-10-22T06:14:57.207Z,71.33
2022-10-22T06:17:25.893Z,70.05
2022-10-22T06:19:54.419Z,67.95
2022-10-22T06:22:23.058Z,66.78
2022-10-22T06:24:52.155Z,66.13
2022-10-22T06:27:20.530Z,65.00
2022-10-22T06:29:49.117Z,63.26
2022-10-22T06:32:17.492Z,61.86
2022-10-22T06:34:46.796Z,60.32
2022-10-22T06:37:15.793Z,57.76
2022-10-22T06:39:45.189Z,56.08
2022-10-22T06:42:13.570Z,53.47
2022-10-22T06:44:42.358Z,58.62
2022-10-22T06:47:10.645Z,58.88
2022-10-22T06:49:39.331Z,58.63
2022-10-22T06:52:07.697Z,57.56
2022-10-22T06:54:36.379Z,55.07
2022-10-22T06:57:04.963Z,51.53
2022-10-22T06:59:33.339Z,48.40
2022-10-22T07:02:01.727Z,47.69
2022-10-22T07:04:30.098Z,47.03
2022-10-22T07:06:58.585Z,45.42
2022-10-22T07:09:28.701Z,43.89
2022-10-22T07:11:56.974Z,42.54
2022-10-22T07:14:25.352Z,38.68
2022-10-22T07:16:53.828Z,38.12
2022-10-22T07:19:22.113Z,38.75
2022-10-22T07:21:50.488Z,38.55
2022-10-22T07:24:19.481Z,38.16
2022-10-22T07:26:48.840Z,37.64
2022-10-22T07:29:17.116Z,36.94
2022-10-22T07:31:45.687Z,36.15
2022-10-22T07:34:14.247Z,35.05
2022-10-22T07:36:42.592Z,33.89
2022-10-22T07:39:10.857Z,34.42
2022-10-22T07:41:39.171Z,34.64
2022-10-22T07:44:07.615Z,31.37
2022-10-22T07:46:36.112Z,31.33
2022-10-22T07:49:04.576Z,31.58
2022-10-22T07:51:32.934Z,31.76
2022-10-22T07:54:01.418Z,31.41
2022-10-22T07:56:29.656Z,31.43
2022-10-22T07:58:58.080Z,30.61
2022-10-22T08:01:26.444Z,30.23
2022-10-22T08:03:54.761Z,29.90
2022-10-22T08:06:23.342Z,30.35
2022-10-22T08:08:51.965Z,30.05
2022-10-22T08:11:20.841Z,30.00
2022-10-22T08:13:49.507Z,29.24
2022-10-22T08:16:17.882Z,29.19
2022-10-22T08:18:46.255Z,28.54
2022-10-22T08:21:15.970Z,29.53
2022-10-22T08:23:44.449Z,28.39
2022-10-22T08:26:12.727Z,28.05
2022-10-22T08:28:41.310Z,27.72
2022-10-22T08:31:10.409Z,27.87
2022-10-22T08:33:39.601Z,27.26
2022-10-22T08:36:08.599Z,27.56
2022-10-22T08:38:37.077Z,27.74
2022-10-22T08:41:24.396Z,27.20
2022-10-22T08:43:56.055Z,27.80
2022-10-22T08:46:36.614Z,27.60
2022-10-22T08:51:43.619Z,27.94
2022-10-22T08:54:23.459Z,28.00
2022-10-22T08:57:01.672Z,27.20
2022-10-22T08:59:35.474Z,27.38
2022-10-22T09:02:09.178Z,26.28
2022-10-22T09:04:43.292Z,26.67
2022-10-22T09:07:11.981Z,26.44
2022-10-22T09:09:43.024Z,26.04
2022-10-22T09:12:20.118Z,25.63
2022-10-22T09:14:49.297Z,25.67
2022-10-22T09:17:36.421Z,24.89
2022-10-22T09:20:28.932Z,24.93
2022-10-22T09:23:13.726Z,25.11
2022-10-22T09:25:42.615Z,25.22
2022-10-22T09:28:11.308Z,24.74
2022-10-22T09:30:40.710Z,24.36
2022-10-22T09:33:20.264Z,25.02
2022-10-22T09:35:54.055Z,24.69
2022-10-22T09:38:25.706Z,24.08
2022-10-22T09:40:55.514Z,24.80
2022-10-22T09:43:23.992Z,25.65
2022-10-22T09:46:03.435Z,26.42
2022-10-22T09:48:37.696Z,26.40
2022-10-22T09:51:06.224Z,27.59
2022-10-22T09:53:39.215Z,28.78
2022-10-22T09:56:17.834Z,30.29
2022-10-22T09:58:49.603Z,30.52
2022-10-22T10:01:22.576Z,31.33
2022-10-22T10:03:51.475Z,32.58
2022-10-22T10:06:21.274Z,33.07
2022-10-22T10:08:50.270Z,32.65
2022-10-22T10:11:38.111Z,33.27
2022-10-22T10:14:18.463Z,33.81
2022-10-22T10:16:50.322Z,34.11
2022-10-22T10:19:21.366Z,33.66
2022-10-22T10:22:09.097Z,33.73
2022-10-22T10:24:45.786Z,32.67
2022-10-22T10:27:27.005Z,32.31
2022-10-22T10:30:01.370Z,31.88
2022-10-22T10:32:29.748Z,32.57
2022-10-22T10:35:07.447Z,33.00
2022-10-22T10:37:41.657Z,33.13
2022-10-22T10:40:28.570Z,34.17
2022-10-22T10:43:11.387Z,34.14
2022-10-22T10:45:42.733Z,34.11
2022-10-22T10:48:17.266Z,33.94
2022-10-22T10:50:48.710Z,32.63
2022-10-22T10:53:35.726Z,31.50
2022-10-22T10:56:22.439Z,31.63
2022-10-22T10:59:13.845Z,31.50
2022-10-22T11:02:18.785Z,30.24
2022-10-22T11:05:05.906Z,29.01
2022-10-22T11:08:09.512Z,27.22
2022-10-22T11:10:37.782Z,26.68
2022-10-22T11:13:14.455Z,25.80
2022-10-22T11:15:45.392Z,25.80
2022-10-22T11:18:36.709Z,25.92
2022-10-22T11:21:21.882Z,25.34
2022-10-22T11:23:57.949Z,25.33
2022-10-22T11:26:38.718Z,25.26
2022-10-22T11:29:11.797Z,25.87
2022-10-22T11:31:41.217Z,27.07
2022-10-22T11:34:34.320Z,27.66
2022-10-22T11:37:05.501Z,28.20
2022-10-22T11:39:43.109Z,27.98
2022-10-22T11:42:21.925Z,28.04
2022-10-22T11:45:01.458Z,27.51
2022-10-22T11:47:35.061Z,27.43
2022-10-22T11:50:25.680Z,27.09
2022-10-22T11:53:03.563Z,27.83
2022-10-22T11:55:50.891Z,27.38
2022-10-22T11:58:30.883Z,26.69
2022-10-22T12:01:02.285Z,25.39
2022-10-22T12:03:33.437Z,25.27
2022-10-22T12:06:12.359Z,26.91
2022-10-22T12:08:43.851Z,27.71
2022-10-22T12:11:12.292Z,27.15
2022-10-22T12:14:02.384Z,27.39
2022-10-22T12:16:54.522Z,29.04
2022-10-22T12:19:22.476Z,29.06
2022-10-22T12:21:57.921Z,30.46
2022-10-22T12:24:29.983Z,31.85
2022-10-22T12:26:58.566Z,30.51
2022-10-22T12:29:28.067Z,30.25
2022-10-22T12:31:57.943Z,29.72
2022-10-22T12:34:26.468Z,28.47
2022-10-22T12:36:54.846Z,28.00
2022-10-22T12:39:26.398Z,27.88
2022-10-22T12:41:55.495Z,28.74
2022-10-22T12:44:23.977Z,29.65
2022-10-22T12:46:56.010Z,30.37
2022-10-22T12:49:36.721Z,32.75
2022-10-22T12:52:08.805Z,33.91
2022-10-22T12:54:40.323Z,34.38
2022-10-22T12:57:14.235Z,35.37
2022-10-22T12:59:47.261Z,36.35
2022-10-22T13:02:22.352Z,36.93
2022-10-22T13:05:09.475Z,37.42
2022-10-22T13:07:47.375Z,38.46
2022-10-22T13:10:18.900Z,38.03
2022-10-22T13:12:50.683Z,38.31
2022-10-22T13:15:28.381Z,38.44
2022-10-22T13:18:03.225Z,39.05
2022-10-22T13:20:31.995Z,39.47
2022-10-22T13:23:06.623Z,39.49
2022-10-22T13:25:40.946Z,39.70
2022-10-22T13:28:15.267Z,39.46
2022-10-22T13:30:52.926Z,40.56
2022-10-22T13:33:27.280Z,40.47
2022-10-22T13:35:56.882Z,41.04
2022-10-22T13:38:26.181Z,40.55
2022-10-22T13:40:55.472Z,41.28
2022-10-22T13:43:25.324Z,41.84
2022-10-22T13:45:56.129Z,41.79
2022-10-22T13:48:26.041Z,43.26
2022-10-22T13:50:54.411Z,43.44
2022-10-22T13:53:24.848Z,44.19
2022-10-22T13:55:53.444Z,45.13
2022-10-22T13:58:26.322Z,44.82
2022-10-22T14:00:59.375Z,45.79
2022-10-22T14:03:32.594Z,44.84
2022-10-22T14:06:01.586Z,43.89
2022-10-22T14:08:30.062Z,44.40
2022-10-22T14:10:58.648Z,44.38
2022-10-22T14:13:28.462Z,43.74
2022-10-22T14:15:56.842Z,43.84
2022-10-22T14:18:29.208Z,45.72
2022-10-22T14:21:00.252Z,45.84
2022-10-22T14:23:30.170Z,45.47
2022-10-22T14:25:59.019Z,45.93
2022-10-22T14:28:27.950Z,44.75
2022-10-22T14:30:56.535Z,45.80
2022-10-22T14:33:28.799Z,46.37
2022-10-22T14:36:00.558Z,46.90
2022-10-22T14:38:29.552Z,48.07
2022-10-22T14:40:58.239Z,46.83
2022-10-22T14:43:28.053Z,48.68
2022-10-22T14:45:57.154Z,48.91
2022-10-22T14:48:25.727Z,49.81
2022-10-22T14:50:54.927Z,50.80
2022-10-22T14:53:23.305Z,50.71
2022-10-22T14:55:52.504Z,51.30
2022-10-22T14:58:20.892Z,52.17
2022-10-22T15:00:49.210Z,52.37
2022-10-22T15:03:17.534Z,51.60
2022-10-22T15:05:45.914Z,52.05
2022-10-22T15:08:15.104Z,54.01
2022-10-22T15:10:43.587Z,51.71
2022-10-22T15:13:12.162Z,53.00
2022-10-22T15:15:41.472Z,51.58
2022-10-22T15:18:11.077Z,50.09
2022-10-22T15:20:39.457Z,50.65
2022-10-22T15:23:08.040Z,53.35
2022-10-22T15:25:36.418Z,56.14
2022-10-22T15:28:09.582Z,56.38
2022-10-22T15:30:38.423Z,56.52
2022-10-22T15:33:06.774Z,57.50
2022-10-22T15:35:35.362Z,57.57
2022-10-22T15:38:06.638Z,57.78
2022-10-22T15:40:34.878Z,57.46
2022-10-22T15:43:03.361Z,57.86
2022-10-22T15:45:31.642Z,57.11
2022-10-22T15:48:00.014Z,58.28
2022-10-22T15:50:28.703Z,58.63
2022-10-22T15:52:57.179Z,55.63
2022-10-22T15:55:25.671Z,55.95
2022-10-22T15:57:57.203Z,58.53
2022-10-22T16:00:27.953Z,56.44
2022-10-22T16:02:56.235Z,58.85
2022-10-22T16:05:24.501Z,61.52
2022-10-22T16:07:55.866Z,61.35
2022-10-22T16:10:24.748Z,60.74
2022-10-22T16:12:54.959Z,58.42
2022-10-22T16:15:23.234Z,58.48
2022-10-22T16:17:52.126Z,61.58
2022-10-22T16:20:20.306Z,61.44
2022-10-22T16:22:50.013Z,61.93
2022-10-22T16:25:18.489Z,62.04
2022-10-22T16:27:49.432Z,63.12
2022-10-22T16:30:18.430Z,63.14
2022-10-22T16:32:46.698Z,62.84
2022-10-22T16:35:15.281Z,63.07
2022-10-22T16:37:43.984Z,61.85
2022-10-22T16:40:12.984Z,62.64
2022-10-22T16:42:42.258Z,63.31
2022-10-22T16:45:11.049Z,62.94
2022-10-22T16:47:40.274Z,63.04
2022-10-22T16:50:09.851Z,64.68
2022-10-22T16:52:38.332Z,65.24
2022-10-22T16:55:06.931Z,65.89
2022-10-22T16:57:36.217Z,65.66
2022-10-22T17:00:05.819Z,65.17
2022-10-22T17:02:35.535Z,65.04
2022-10-22T17:05:04.010Z,65.26
2022-10-22T17:07:32.291Z,64.75
2022-10-22T17:10:01.508Z,65.54
2022-10-22T17:12:35.804Z,65.04
2022-10-22T17:15:07.154Z,66.06
2022-10-22T17:17:35.427Z,65.76
2022-10-22T17:20:03.909Z,66.68
2022-10-22T17:22:32.696Z,64.34
2022-10-22T17:25:09.263Z,62.78
2022-10-22T17:27:37.540Z,64.19
2022-10-22T17:30:06.227Z,68.17
2022-10-22T17:32:38.934Z,66.39
2022-10-22T17:35:07.798Z,62.45
2022-10-22T17:37:36.075Z,63.37
2022-10-22T17:40:05.290Z,69.10
2022-10-22T17:42:33.556Z,69.51
2022-10-22T17:45:01.825Z,70.48
2022-10-22T17:47:30.100Z,70.21
2022-10-22T17:49:58.583Z,70.26
2022-10-22T17:52:26.859Z,70.17
2022-10-22T17:54:55.332Z,70.14
2022-10-22T17:57:23.719Z,70.23
2022-10-22T17:59:51.986Z,70.74
2022-10-22T18:02:20.793Z,69.84
2022-10-22T18:04:52.641Z,69.14
2022-10-22T18:07:21.343Z,68.34
2022-10-22T18:09:49.736Z,69.29
2022-10-22T18:12:18.387Z,71.04
2022-10-22T18:14:47.380Z,69.73
2022-10-22T18:17:15.759Z,67.73
2022-10-22T18:19:44.036Z,70.51
2022-10-22T18:22:12.211Z,70.70
2022-10-22T18:24:40.485Z,68.60
2022-10-22T18:27:08.660Z,66.49
2022-10-22T18:29:37.239Z,68.81
2022-10-22T18:32:12.131Z,69.69
2022-10-22T18:34:41.675Z,71.12
2022-10-22T18:37:10.055Z,70.19
2022-10-22T18:39:38.329Z,69.45
2022-10-22T18:42:07.487Z,68.32
2022-10-22T18:44:36.317Z,69.31
2022-10-22T18:47:04.802Z,66.59
2022-10-22T18:49:32.974Z,64.27
2022-10-22T18:52:01.351Z,66.39
2022-10-22T18:54:29.624Z,69.05
2022-10-22T18:57:00.482Z,70.85
2022-10-22T18:59:31.431Z,71.39
2022-10-22T19:02:00.509Z,70.30
2022-10-22T19:04:33.480Z,66.36
2022-10-22T19:07:01.837Z,65.83
2022-10-22T19:09:30.751Z,67.28
2022-10-22T19:12:00.259Z,66.06
2022-10-22T19:14:28.842Z,66.45
2022-10-22T19:16:57.046Z,65.35
2022-10-22T19:19:25.285Z,69.38
2022-10-22T19:21:53.975Z,70.58
2022-10-22T19:24:22.972Z,67.49
2022-10-22T19:26:51.381Z,66.99
2022-10-22T19:29:20.643Z,69.70
2022-10-22T19:31:51.287Z,68.04
2022-10-22T19:34:20.267Z,70.02
2022-10-22T19:36:48.749Z,71.66
2022-10-22T19:39:17.756Z,72.76
2022-10-22T19:41:46.329Z,73.07
2022-10-22T19:44:14.604Z,72.97
2022-10-22T19:46:43.016Z,72.69
2022-10-22T19:49:11.254Z,72.13
2022-10-22T19:51:40.451Z,70.65
2022-10-22T19:54:12.002Z,69.95
2022-10-22T19:56:41.435Z,69.55
2022-10-22T19:59:09.790Z,68.94
2022-10-22T20:01:38.110Z,72.14
2022-10-22T20:04:06.955Z,73.87
2022-10-22T20:06:35.229Z,74.72
2022-10-22T20:09:03.583Z,75.14
2022-10-22T20:11:31.881Z,75.04
2022-10-22T20:14:00.262Z,72.19
2022-10-22T20:16:30.104Z,69.63
2022-10-22T20:19:02.958Z,70.62
2022-10-22T20:21:31.539Z,71.18
2022-10-22T20:24:00.433Z,68.76
2022-10-22T20:26:29.226Z,67.78
2022-10-22T20:28:58.429Z,67.41
2022-10-22T20:31:29.876Z,71.36
2022-10-22T20:33:58.971Z,72.81
2022-10-22T20:36:28.879Z,70.08
2022-10-22T20:39:08.724Z,72.46
2022-10-22T20:41:40.893Z,72.22
2022-10-22T20:44:14.598Z,69.29
2022-10-22T20:46:43.309Z,69.93
2022-10-22T20:49:13.807Z,75.98
2022-10-22T20:51:43.142Z,78.97
2022-10-22T20:54:11.794Z,79.01
2022-10-22T20:56:41.309Z,80.60
2022-10-22T20:59:11.182Z,79.49
2022-10-22T21:01:49.908Z,77.83
2022-10-22T21:04:20.161Z,73.87
2022-10-22T21:06:50.659Z,78.56
2022-10-22T21:09:19.871Z,78.31
2022-10-22T21:11:48.435Z,81.96
2022-10-22T21:14:19.953Z,81.60
2022-10-22T21:16:51.781Z,81.50
2022-10-22T21:19:20.796Z,82.30
2022-10-22T21:21:50.071Z,83.92
2022-10-22T21:24:18.653Z,83.70
2022-10-22T21:26:47.027Z,85.03
2022-10-22T21:29:15.514Z,85.73
2022-10-22T21:31:44.209Z,83.52
2022-10-22T21:34:13.709Z,82.44
2022-10-22T21:36:42.975Z,84.08
2022-10-22T21:39:12.607Z,85.79
2022-10-22T21:41:41.502Z,86.27
2022-10-22T21:44:10.090Z,86.43
2022-10-22T21:46:39.074Z,86.89
2022-10-22T21:49:07.561Z,86.59
2022-10-22T21:51:38.406Z,86.81
2022-10-22T21:54:07.088Z,86.57
2022-10-22T21:56:36.369Z,84.42
2022-10-22T21:59:06.192Z,81.54
2022-10-22T22:01:35.834Z,81.16
2022-10-22T22:04:04.425Z,80.73
2022-10-22T22:06:33.876Z,79.92
2022-10-22T22:09:04.395Z,78.88
2022-10-22T22:11:34.095Z,77.79
2022-10-22T22:14:02.400Z,82.39
2022-10-22T22:16:32.415Z,83.93
2022-10-22T22:21:33.498Z,81.61
2022-10-22T22:24:03.494Z,83.22
2022-10-22T22:26:32.593Z,87.14
2022-10-22T22:29:01.612Z,91.86
2022-10-22T22:31:32.287Z,92.20
2022-10-22T22:34:01.015Z,93.07
2022-10-22T22:36:33.069Z,94.01
2022-10-22T22:39:02.193Z,94.44
2022-10-22T22:41:31.575Z,94.13
2022-10-22T22:44:00.525Z,93.78
2022-10-22T22:46:30.084Z,93.47
2022-10-22T22:48:59.058Z,95.36
2022-10-22T22:51:27.657Z,94.56
2022-10-22T22:54:01.097Z,95.24
2022-10-22T22:56:31.466Z,92.41
2022-10-22T22:59:01.247Z,90.31
2022-10-22T23:01:33.901Z,91.10
2022-10-22T23:04:11.677Z,94.13
2022-10-22T23:06:41.076Z,95.67
2022-10-22T23:09:12.463Z,96.68
2022-10-22T23:11:42.104Z,96.63
2022-10-22T23:14:14.395Z,96.04
2022-10-22T23:16:46.578Z,96.29
2022-10-22T23:19:16.366Z,97.67
2022-10-22T23:21:46.478Z,98.10
2022-10-22T23:24:17.510Z,98.11
2022-10-22T23:26:48.042Z,97.66
2022-10-22T23:29:28.607Z,96.62
2022-10-22T23:31:59.655Z,94.98
2022-10-22T23:34:30.582Z,93.75
2022-10-22T23:36:59.840Z,96.90
2022-10-22T23:39:29.903Z,98.36
2022-10-22T23:41:59.014Z,99.33
2022-10-22T23:44:28.094Z,99.94
2022-10-22T23:46:57.161Z,100.00
2022-10-22T23:49:28.124Z,99.81
2022-10-22T23:51:57.210Z,99.99
2022-10-22T23:54:26.107Z,99.86
2022-10-22T23:56:55.334Z,99.17
2022-10-22T23:59:24.745Z,98.83
